SGR weather

Sugar Land Regional Airport
Houston, Texas, United States

Public forecast

Using degrees Fahrenheit for public forecast. Weather courtesy of forecast.io.

METAR (pilot weather report)

Retrieved 2019/09/23 04:53 UTC (59 minutes ago):

KSGR 230453Z AUTO 12005KT 10SM CLR 27/26 A3002 RMK AO2 SLP166 T02670256

TAF (pilot weather forecast)

Forecast is more than 12 hours old.

Retrieved 2019/09/22 00:24 UTC (1 day ago):

TAF KSGR 222321Z 2300/2324 15008KT P6SM SCT025 SCT250 FM231600 16006KT P6SM VCSH SCT025 BKN035 FM232000 15008KT P6SM BKN250